Time;durP1;ratioP1;P1;durP2;ratioP2;P2;SDS_P1;SDS_P2;PMS_P1;PMS_P2;Temp;Humidity;BMP_temperature;BMP_pressure;BME280_temperature;BME280_humidity;BME280_pressure;Samples;Min_cycle;Max_cycle;Signal;HPM_P1;HPM_P2
2024/01/11 00:02:18;;;;;;;15.30;9.03;;;;;;;;;;5071824;28;20434;-48
2024/01/11 00:04:44;;;;;;;14.13;9.03;;;;;;;;;;5071729;28;20702;-48
2024/01/11 00:07:10;;;;;;;12.20;8.20;;;;;;;;;;5071788;28;20448;-49
2024/01/11 00:09:39;;;;;;;13.13;8.17;;;;;;;;;;5071576;28;20270;-49
2024/01/11 00:12:05;;;;;;;13.50;8.47;;;;;;;;;;5071616;28;20474;-49
2024/01/11 00:14:31;;;;;;;13.10;8.07;;;;;;;;;;5071632;28;20831;-49
2024/01/11 00:16:57;;;;;;;16.30;9.30;;;;;;;;;;5071405;28;20472;-49
2024/01/11 00:19:25;;;;;;;13.67;9.47;;;;;;;;;;5071447;28;20442;-49
2024/01/11 00:21:51;;;;;;;13.57;8.40;;;;;;;;;;5071675;28;20207;-49
2024/01/11 00:24:17;;;;;;;11.83;8.30;;;;;;;;;;5071728;28;20438;-50
2024/01/11 00:26:43;;;;;;;12.27;7.93;;;;;;;;;;5070499;28;20672;-49
2024/01/11 00:29:09;;;;;;;14.13;8.63;;;;;;;;;;5071495;28;20207;-49
2024/01/11 00:31:35;;;;;;;12.23;8.13;;;;;;;;;;5071474;28;20508;-49
2024/01/11 00:34:01;;;;;;;15.27;9.63;;;;;;;;;;5071573;28;20202;-49
2024/01/11 00:36:28;;;;;;;12.63;9.00;;;;;;;;;;5071519;28;20438;-49
2024/01/11 00:38:54;;;;;;;15.17;8.97;;;;;;;;;;5071327;28;20219;-49
2024/01/11 00:41:20;;;;;;;16.67;10.03;;;;;;;;;;5071295;28;20441;-48
2024/01/11 00:43:46;;;;;;;13.17;9.23;;;;;;;;;;5071678;28;20221;-49
2024/01/11 00:46:12;;;;;;;13.07;9.10;;;;;;;;;;5071385;28;20958;-49
2024/01/11 00:48:38;;;;;;;13.23;9.10;;;;;;;;;;5071318;28;20529;-49
2024/01/11 00:51:05;;;;;;;14.03;9.60;;;;;;;;;;5071206;28;20505;-49
2024/01/11 00:53:33;;;;;;;13.43;8.50;;;;;;;;;;5071184;28;20540;-49
2024/01/11 00:55:59;;;;;;;11.13;7.80;;;;;;;;;;5071342;28;20527;-49
2024/01/11 00:58:25;;;;;;;14.17;8.63;;;;;;;;;;5070772;28;20539;-49
2024/01/11 01:00:52;;;;;;;13.80;8.57;;;;;;;;;;5070957;28;20442;-49
2024/01/11 01:03:18;;;;;;;14.40;8.50;;;;;;;;;;5071156;28;20280;-49
2024/01/11 01:05:44;;;;;;;12.53;8.30;;;;;;;;;;5070845;28;20931;-49
2024/01/11 01:08:10;;;;;;;14.30;9.20;;;;;;;;;;5071456;28;20505;-49
2024/01/11 01:10:38;;;;;;;14.33;8.80;;;;;;;;;;5070759;28;20955;-49
2024/01/11 01:13:04;;;;;;;14.80;8.73;;;;;;;;;;5070998;28;20276;-49
2024/01/11 01:15:30;;;;;;;12.73;9.13;;;;;;;;;;5071084;28;20442;-49
2024/01/11 01:17:56;;;;;;;12.53;8.63;;;;;;;;;;5071019;28;20482;-49
2024/01/11 01:20:22;;;;;;;12.53;8.63;;;;;;;;;;5071102;28;20468;-49
2024/01/11 01:22:48;;;;;;;12.43;8.17;;;;;;;;;;5071037;28;20253;-49
2024/01/11 01:25:14;;;;;;;14.00;8.80;;;;;;;;;;5071131;28;20438;-49
2024/01/11 01:27:41;;;;;;;12.33;8.47;;;;;;;;;;5070856;28;20187;-49
2024/01/11 01:30:08;;;;;;;13.87;8.33;;;;;;;;;;5070894;28;20944;-49
2024/01/11 01:32:34;;;;;;;14.10;8.80;;;;;;;;;;5070448;28;20545;-48
2024/01/11 01:35:00;;;;;;;12.87;8.63;;;;;;;;;;5070925;28;20433;-48
2024/01/11 01:37:26;;;;;;;14.87;9.10;;;;;;;;;;5070843;28;20473;-49
2024/01/11 01:39:52;;;;;;;14.53;8.47;;;;;;;;;;5073998;28;20658;-48
2024/01/11 01:42:18;;;;;;;12.80;8.17;;;;;;;;;;5074461;28;20444;-48
2024/01/11 01:44:46;;;;;;;13.23;9.20;;;;;;;;;;5074498;28;20199;-48
2024/01/11 01:47:12;;;;;;;14.77;8.93;;;;;;;;;;5074516;28;20282;-49
2024/01/11 01:49:38;;;;;;;15.53;9.70;;;;;;;;;;5074249;28;20487;-48
2024/01/11 01:52:05;;;;;;;13.60;9.30;;;;;;;;;;5074296;28;20849;-48
2024/01/11 01:54:32;;;;;;;12.83;8.33;;;;;;;;;;5074207;28;20524;-48
2024/01/11 01:56:59;;;;;;;14.87;8.60;;;;;;;;;;5073927;28;20434;-49
2024/01/11 01:59:26;;;;;;;14.67;8.83;;;;;;;;;;5074189;28;20438;-49
2024/01/11 02:01:54;;;;;;;15.63;9.63;;;;;;;;;;5073921;28;20458;-49
2024/01/11 02:04:20;;;;;;;14.03;8.60;;;;;;;;;;5070351;28;20524;-49
2024/01/11 02:06:47;;;;;;;15.17;9.37;;;;;;;;;;5068641;28;20452;-48
2024/01/11 02:09:13;;;;;;;14.40;9.23;;;;;;;;;;5074123;28;20510;-48
2024/01/11 02:11:41;;;;;;;12.93;8.73;;;;;;;;;;5073602;28;20543;-48
2024/01/11 02:14:07;;;;;;;13.90;8.50;;;;;;;;;;5073950;28;20902;-48
2024/01/11 02:16:33;;;;;;;16.60;9.33;;;;;;;;;;5073791;28;20521;-48
2024/01/11 02:19:01;;;;;;;13.43;8.93;;;;;;;;;;5073920;28;20485;-48
2024/01/11 02:21:28;;;;;;;13.90;8.93;;;;;;;;;;5073903;28;20436;-49
2024/01/11 02:24:00;;;;;;;14.77;9.03;;;;;;;;;;5073809;28;20466;-49
2024/01/11 02:26:26;;;;;;;13.03;8.33;;;;;;;;;;5073736;28;20528;-50
2024/01/11 02:28:52;;;;;;;14.37;8.73;;;;;;;;;;5073578;28;20487;-49
2024/01/11 02:31:18;;;;;;;12.33;8.20;;;;;;;;;;5073597;28;20445;-49
2024/01/11 02:33:44;;;;;;;13.87;8.03;;;;;;;;;;5073554;28;20278;-49
2024/01/11 02:36:11;;;;;;;14.10;9.20;;;;;;;;;;5073621;28;20609;-50
2024/01/11 02:38:37;;;;;;;16.40;9.87;;;;;;;;;;5073279;28;20897;-49
2024/01/11 02:41:05;;;;;;;15.63;9.53;;;;;;;;;;5073537;28;20539;-49
2024/01/11 02:43:31;;;;;;;12.70;8.80;;;;;;;;;;5073444;28;20438;-49
2024/01/11 02:45:59;;;;;;;15.30;9.67;;;;;;;;;;5073359;28;20495;-49
2024/01/11 02:48:28;;;;;;;11.67;8.27;;;;;;;;;;5073364;28;20441;-49
2024/01/11 02:50:54;;;;;;;14.77;8.50;;;;;;;;;;5072612;28;21008;-49
2024/01/11 02:53:20;;;;;;;14.73;9.00;;;;;;;;;;5073298;28;20437;-49
2024/01/11 02:55:46;;;;;;;12.33;8.77;;;;;;;;;;5073127;28;20196;-49
2024/01/11 02:58:13;;;;;;;14.03;9.60;;;;;;;;;;5073432;28;20532;-49
2024/01/11 03:00:39;;;;;;;12.00;8.80;;;;;;;;;;5072894;28;20203;-49
2024/01/11 03:03:05;;;;;;;15.70;9.50;;;;;;;;;;5073046;28;20445;-49
2024/01/11 03:05:31;;;;;;;13.83;8.33;;;;;;;;;;5073001;28;20200;-49
2024/01/11 03:07:57;;;;;;;14.27;9.20;;;;;;;;;;5072905;28;20441;-49
2024/01/11 03:10:23;;;;;;;13.50;8.83;;;;;;;;;;5072662;28;20772;-49
2024/01/11 03:12:49;;;;;;;14.53;9.13;;;;;;;;;;5072941;28;20286;-49
2024/01/11 03:15:17;;;;;;;14.87;8.73;;;;;;;;;;5072882;28;20484;-49
2024/01/11 03:17:43;;;;;;;16.30;9.00;;;;;;;;;;5072491;28;20466;-49
2024/01/11 03:20:09;;;;;;;14.57;9.33;;;;;;;;;;5072555;28;20444;-49
2024/01/11 03:22:35;;;;;;;14.80;9.17;;;;;;;;;;5072382;28;20237;-50
2024/01/11 03:25:01;;;;;;;15.47;8.97;;;;;;;;;;5072508;28;20446;-49
2024/01/11 03:27:27;;;;;;;15.03;9.63;;;;;;;;;;5072613;28;20214;-49
2024/01/11 03:29:53;;;;;;;18.87;10.03;;;;;;;;;;5072337;28;20725;-50
2024/01/11 03:32:20;;;;;;;13.97;9.30;;;;;;;;;;5072467;28;20203;-49
2024/01/11 03:34:46;;;;;;;16.37;10.23;;;;;;;;;;5072471;28;20446;-50
2024/01/11 03:37:12;;;;;;;14.33;9.40;;;;;;;;;;5072344;28;20441;-49
2024/01/11 03:39:38;;;;;;;17.27;10.70;;;;;;;;;;5072109;28;20674;-49
2024/01/11 03:42:04;;;;;;;13.93;9.87;;;;;;;;;;5072410;28;20196;-50
2024/01/11 03:44:31;;;;;;;17.57;10.43;;;;;;;;;;5072392;28;20183;-49
2024/01/11 03:46:57;;;;;;;16.40;9.93;;;;;;;;;;5072196;28;20434;-49
2024/01/11 03:49:24;;;;;;;16.73;9.90;;;;;;;;;;5072146;28;20939;-49
2024/01/11 03:51:50;;;;;;;16.40;10.40;;;;;;;;;;5072072;28;20569;-49
2024/01/11 03:54:16;;;;;;;13.67;9.73;;;;;;;;;;5072270;28;20430;-49
2024/01/11 03:56:42;;;;;;;17.23;10.33;;;;;;;;;;5071988;28;20199;-49
2024/01/11 03:59:08;;;;;;;14.83;9.20;;;;;;;;;;5071841;28;20234;-49
2024/01/11 04:01:38;;;;;;;13.87;9.07;;;;;;;;;;5071110;28;20715;-49
2024/01/11 04:04:04;;;;;;;16.17;9.80;;;;;;;;;;5071809;28;20438;-49
2024/01/11 04:06:32;;;;;;;19.30;10.00;;;;;;;;;;5072178;28;20456;-49
2024/01/11 04:08:58;;;;;;;13.27;9.33;;;;;;;;;;5072023;28;20206;-49
2024/01/11 04:11:24;;;;;;;13.67;9.50;;;;;;;;;;5071553;28;20461;-49
2024/01/11 04:13:50;;;;;;;18.10;10.33;;;;;;;;;;5071637;28;20456;-50
2024/01/11 04:16:16;;;;;;;13.93;9.53;;;;;;;;;;5071804;28;20761;-50
2024/01/11 04:18:41;;;;;;;14.40;9.97;;;;;;;;;;5071703;28;20568;-49
2024/01/11 04:21:07;;;;;;;17.73;10.43;;;;;;;;;;5071857;28;20437;-50
2024/01/11 04:23:35;;;;;;;16.73;9.23;;;;;;;;;;5071679;28;20195;-49
2024/01/11 04:26:01;;;;;;;15.97;9.67;;;;;;;;;;5071585;28;20199;-50
2024/01/11 04:28:28;;;;;;;14.23;9.30;;;;;;;;;;5071681;28;20997;-49
2024/01/11 04:30:54;;;;;;;15.60;10.33;;;;;;;;;;5071429;28;20199;-49
2024/01/11 04:33:19;;;;;;;15.23;9.23;;;;;;;;;;5071545;28;20430;-50
2024/01/11 04:35:45;;;;;;;13.83;8.87;;;;;;;;;;5071542;28;20557;-50
2024/01/11 04:38:11;;;;;;;14.43;10.17;;;;;;;;;;5071536;28;20227;-50
2024/01/11 04:40:39;;;;;;;16.67;10.90;;;;;;;;;;5071680;28;20195;-50
2024/01/11 04:43:05;;;;;;;16.57;10.30;;;;;;;;;;5071550;28;20724;-50
2024/01/11 04:45:31;;;;;;;12.13;8.70;;;;;;;;;;5071531;28;20430;-50
2024/01/11 04:47:57;;;;;;;13.67;9.77;;;;;;;;;;5071341;28;20223;-49
2024/01/11 04:50:23;;;;;;;15.23;9.87;;;;;;;;;;5071382;28;20780;-49
2024/01/11 04:52:49;;;;;;;13.30;9.20;;;;;;;;;;5071554;28;20465;-49
2024/01/11 04:55:15;;;;;;;12.70;8.47;;;;;;;;;;5071408;28;20449;-50
2024/01/11 04:57:43;;;;;;;14.87;9.73;;;;;;;;;;5071303;28;20564;-54
2024/01/11 05:00:09;;;;;;;15.53;10.87;;;;;;;;;;5071213;28;20426;-49
2024/01/11 05:02:35;;;;;;;15.70;10.27;;;;;;;;;;5071446;28;20457;-49
2024/01/11 05:05:01;;;;;;;17.20;11.00;;;;;;;;;;5071209;28;20433;-49
2024/01/11 05:07:28;;;;;;;16.37;9.93;;;;;;;;;;5071204;28;20450;-49
2024/01/11 05:09:54;;;;;;;13.40;9.30;;;;;;;;;;5071034;28;20202;-49
2024/01/11 05:12:20;;;;;;;17.17;10.93;;;;;;;;;;5071066;28;20512;-49
2024/01/11 05:14:47;;;;;;;16.10;10.83;;;;;;;;;;5074688;28;20449;-49
2024/01/11 05:17:14;;;;;;;17.03;10.60;;;;;;;;;;5074948;28;20460;-50
2024/01/11 05:19:40;;;;;;;14.63;10.37;;;;;;;;;;5074992;28;20473;-50
2024/01/11 05:22:06;;;;;;;16.03;10.67;;;;;;;;;;5074787;28;20478;-50
2024/01/11 05:24:32;;;;;;;16.13;11.70;;;;;;;;;;5074896;28;20195;-50
2024/01/11 05:26:59;;;;;;;16.63;11.10;;;;;;;;;;5074845;28;20257;-50
2024/01/11 05:29:25;;;;;;;16.90;10.77;;;;;;;;;;5074721;28;20433;-50
2024/01/11 05:31:52;;;;;;;17.67;11.03;;;;;;;;;;5073448;28;20498;-50
2024/01/11 05:34:18;;;;;;;21.33;11.47;;;;;;;;;;5074708;28;20200;-51
2024/01/11 05:36:44;;;;;;;19.23;12.03;;;;;;;;;;5074735;28;20492;-50
2024/01/11 05:39:10;;;;;;;18.70;11.23;;;;;;;;;;5074358;28;20223;-50
2024/01/11 05:41:36;;;;;;;19.00;11.23;;;;;;;;;;5074493;28;20229;-50
2024/01/11 05:44:02;;;;;;;16.30;10.60;;;;;;;;;;5074363;28;20281;-50
2024/01/11 05:46:28;;;;;;;17.80;11.17;;;;;;;;;;5074532;28;20235;-50
2024/01/11 05:48:55;;;;;;;20.07;12.03;;;;;;;;;;5074249;28;20195;-50
2024/01/11 05:51:21;;;;;;;20.77;12.23;;;;;;;;;;5074398;28;20429;-50
2024/01/11 05:53:47;;;;;;;19.97;11.67;;;;;;;;;;5074125;28;20534;-49
2024/01/11 05:56:13;;;;;;;16.70;10.53;;;;;;;;;;5074385;28;20203;-50
2024/01/11 05:58:40;;;;;;;20.53;11.60;;;;;;;;;;5074163;28;20469;-50
2024/01/11 06:01:06;;;;;;;15.70;10.70;;;;;;;;;;5074231;28;20841;-50
2024/01/11 06:03:34;;;;;;;18.70;10.70;;;;;;;;;;5074103;28;20445;-50
2024/01/11 06:06:01;;;;;;;18.13;11.30;;;;;;;;;;5073941;28;21005;-50
2024/01/11 06:08:28;;;;;;;17.97;11.00;;;;;;;;;;5073914;28;20450;-50
2024/01/11 06:10:54;;;;;;;22.37;11.20;;;;;;;;;;5073710;28;20474;-50
2024/01/11 06:13:19;;;;;;;19.10;12.17;;;;;;;;;;5073999;28;20792;-50
2024/01/11 06:15:45;;;;;;;21.30;13.87;;;;;;;;;;5074098;28;20215;-50
2024/01/11 06:18:11;;;;;;;21.80;13.03;;;;;;;;;;5073412;28;20852;-50
2024/01/11 06:20:37;;;;;;;18.80;12.53;;;;;;;;;;5073886;28;20200;-50
2024/01/11 06:23:05;;;;;;;22.77;12.10;;;;;;;;;;5073581;28;20794;-50
2024/01/11 06:25:31;;;;;;;27.80;14.77;;;;;;;;;;5072727;28;20445;-50
2024/01/11 06:27:57;;;;;;;35.20;19.23;;;;;;;;;;5073723;28;20441;-50
2024/01/11 06:30:23;;;;;;;34.17;18.60;;;;;;;;;;5073661;28;20249;-50
2024/01/11 06:32:49;;;;;;;30.13;17.10;;;;;;;;;;5073425;28;20200;-50
2024/01/11 06:35:15;;;;;;;26.77;16.13;;;;;;;;;;5073425;28;20441;-50
2024/01/11 06:37:41;;;;;;;23.97;15.87;;;;;;;;;;5073483;28;20265;-50
2024/01/11 06:40:09;;;;;;;25.27;16.77;;;;;;;;;;5073331;28;20430;-50
2024/01/11 06:42:35;;;;;;;22.77;15.10;;;;;;;;;;5073430;28;20445;-50
2024/01/11 06:45:01;;;;;;;23.43;15.67;;;;;;;;;;5073342;28;20768;-49
2024/01/11 06:47:27;;;;;;;22.10;15.00;;;;;;;;;;5073405;28;20453;-50
2024/01/11 06:49:53;;;;;;;22.43;15.43;;;;;;;;;;5073098;28;20430;-51
2024/01/11 06:52:19;;;;;;;24.60;16.00;;;;;;;;;;5073195;28;20253;-50
2024/01/11 06:54:45;;;;;;;21.17;14.20;;;;;;;;;;5073227;28;20430;-50
2024/01/11 06:57:13;;;;;;;21.60;14.47;;;;;;;;;;5073171;28;20496;-49
2024/01/11 06:59:39;;;;;;;22.07;14.43;;;;;;;;;;5072974;28;20481;-49
2024/01/11 07:02:05;;;;;;;27.10;16.33;;;;;;;;;;5072918;28;20449;-50
2024/01/11 07:04:31;;;;;;;28.40;16.77;;;;;;;;;;5073141;28;20199;-50
2024/01/11 07:06:57;;;;;;;32.80;18.13;;;;;;;;;;5073031;28;20199;-49
2024/01/11 07:09:23;;;;;;;24.17;15.67;;;;;;;;;;5072913;28;20768;-50
2024/01/11 07:11:49;;;;;;;29.73;17.03;;;;;;;;;;5072615;28;20477;-49
2024/01/11 07:14:16;;;;;;;28.47;17.87;;;;;;;;;;5072679;28;20481;-50
2024/01/11 07:16:42;;;;;;;31.87;18.70;;;;;;;;;;5072760;28;20345;-49
2024/01/11 07:19:08;;;;;;;28.03;17.37;;;;;;;;;;5072381;28;20819;-50
2024/01/11 07:21:34;;;;;;;31.90;19.10;;;;;;;;;;5072577;28;21051;-50
2024/01/11 07:24:00;;;;;;;31.33;18.87;;;;;;;;;;5072851;28;20521;-49
2024/01/11 07:26:27;;;;;;;38.33;22.30;;;;;;;;;;5072690;28;20599;-49
2024/01/11 07:28:54;;;;;;;34.97;20.80;;;;;;;;;;5072372;28;20200;-50
2024/01/11 07:31:22;;;;;;;34.20;18.90;;;;;;;;;;5072545;28;20499;-49
2024/01/11 07:33:48;;;;;;;36.63;20.93;;;;;;;;;;5072580;28;20442;-49
2024/01/11 07:36:14;;;;;;;32.93;19.87;;;;;;;;;;5072321;28;20430;-49
2024/01/11 07:38:40;;;;;;;35.33;19.30;;;;;;;;;;5071955;28;20569;-49
2024/01/11 07:41:07;;;;;;;35.43;20.67;;;;;;;;;;5071787;28;20426;-49
2024/01/11 07:43:35;;;;;;;37.13;20.33;;;;;;;;;;5070843;28;20426;-50
2024/01/11 07:46:01;;;;;;;34.97;19.57;;;;;;;;;;5071972;28;20433;-50
2024/01/11 07:48:29;;;;;;;40.47;21.57;;;;;;;;;;5072076;28;20483;-49
2024/01/11 07:50:55;;;;;;;38.27;21.57;;;;;;;;;;5072098;28;20462;-50
2024/01/11 07:53:21;;;;;;;39.20;22.33;;;;;;;;;;5072050;28;20477;-50
2024/01/11 07:55:47;;;;;;;41.50;21.27;;;;;;;;;;5071998;28;20282;-50
2024/01/11 07:58:14;;;;;;;37.37;20.17;;;;;;;;;;5071842;28;20470;-49
2024/01/11 08:00:41;;;;;;;43.77;22.33;;;;;;;;;;5072019;28;20433;-49
2024/01/11 08:03:08;;;;;;;34.47;20.13;;;;;;;;;;5071897;28;20434;-49
2024/01/11 08:05:35;;;;;;;34.73;20.07;;;;;;;;;;5071880;28;20434;-49
2024/01/11 08:08:03;;;;;;;40.73;21.90;;;;;;;;;;5071779;28;20955;-49
2024/01/11 08:10:30;;;;;;;39.80;22.33;;;;;;;;;;5071766;28;20528;-53
2024/01/11 08:12:56;;;;;;;35.97;21.37;;;;;;;;;;5071873;28;20445;-50
2024/01/11 08:15:22;;;;;;;38.90;21.03;;;;;;;;;;5071673;28;20821;-48
2024/01/11 08:17:48;;;;;;;36.77;21.97;;;;;;;;;;5071496;28;20478;-49
2024/01/11 08:20:15;;;;;;;41.97;20.43;;;;;;;;;;5071810;28;20203;-48
2024/01/11 08:22:48;;;;;;;37.10;21.57;;;;;;;;;;5071841;28;20529;-49
2024/01/11 08:25:14;;;;;;;36.20;21.07;;;;;;;;;;5070494;28;20442;-48
2024/01/11 08:27:40;;;;;;;30.43;18.53;;;;;;;;;;5071800;28;20438;-49
2024/01/11 08:30:08;;;;;;;35.20;19.20;;;;;;;;;;5071633;28;20440;-48
2024/01/11 08:32:38;;;;;;;37.20;20.17;;;;;;;;;;5071776;28;20541;-48
2024/01/11 08:35:06;;;;;;;31.13;18.37;;;;;;;;;;5071717;28;20441;-48
2024/01/11 08:37:32;;;;;;;37.97;20.30;;;;;;;;;;5071757;28;20437;-48
2024/01/11 08:39:59;;;;;;;36.43;20.07;;;;;;;;;;5071649;28;20410;-49
2024/01/11 08:42:25;;;;;;;39.37;22.17;;;;;;;;;;5071544;28;20458;-48
2024/01/11 08:44:52;;;;;;;35.23;20.17;;;;;;;;;;5071649;28;20441;-48
2024/01/11 08:47:18;;;;;;;40.60;21.37;;;;;;;;;;5071552;28;20434;-48
2024/01/11 08:49:44;;;;;;;37.67;21.87;;;;;;;;;;5075318;28;20418;-48
2024/01/11 08:52:10;;;;;;;41.87;22.83;;;;;;;;;;5075676;28;20457;-48
2024/01/11 08:54:36;;;;;;;41.80;21.97;;;;;;;;;;5075361;28;20206;-48
2024/01/11 08:57:03;;;;;;;43.87;21.83;;;;;;;;;;5075759;28;20199;-48
2024/01/11 08:59:29;;;;;;;48.27;24.07;;;;;;;;;;5075463;28;20887;-48
2024/01/11 09:01:55;;;;;;;49.80;22.93;;;;;;;;;;5073283;28;20462;-48
2024/01/11 09:04:21;;;;;;;51.53;23.77;;;;;;;;;;5075255;28;20956;-48
2024/01/11 09:06:47;;;;;;;54.50;24.57;;;;;;;;;;5075240;28;20438;-48
2024/01/11 09:09:13;;;;;;;51.93;24.40;;;;;;;;;;5075366;28;20270;-48
2024/01/11 09:11:40;;;;;;;45.27;23.53;;;;;;;;;;5075244;28;20247;-48
2024/01/11 09:14:10;;;;;;;99.17;44.10;;;;;;;;;;5075322;28;20460;-49
2024/01/11 09:16:36;;;;;;;57.80;27.53;;;;;;;;;;5075246;28;20454;-48
2024/01/11 09:19:02;;;;;;;48.27;25.20;;;;;;;;;;5074897;28;20655;-49
2024/01/11 09:21:29;;;;;;;50.93;23.53;;;;;;;;;;5075255;28;20776;-49
2024/01/11 09:23:55;;;;;;;45.93;23.53;;;;;;;;;;5075135;28;20207;-49
2024/01/11 09:26:22;;;;;;;50.40;25.80;;;;;;;;;;5075114;28;20479;-48
2024/01/11 09:28:48;;;;;;;49.00;23.83;;;;;;;;;;5074908;28;20425;-49
2024/01/11 09:31:15;;;;;;;48.27;28.23;;;;;;;;;;5074757;28;20430;-49
2024/01/11 09:33:45;;;;;;;47.37;24.97;;;;;;;;;;5074756;28;20455;-49
2024/01/11 09:36:11;;;;;;;47.93;23.83;;;;;;;;;;5074510;28;20511;-49
2024/01/11 09:38:37;;;;;;;46.60;24.43;;;;;;;;;;5074598;28;20812;-49
2024/01/11 09:41:10;;;;;;;42.23;22.17;;;;;;;;;;5074380;28;20441;-49
2024/01/11 09:43:36;;;;;;;43.53;24.47;;;;;;;;;;5074561;28;20436;-48
2024/01/11 09:46:04;;;;;;;39.73;21.03;;;;;;;;;;5074377;28;20425;-49
2024/01/11 09:48:32;;;;;;;45.17;23.50;;;;;;;;;;5074365;28;20951;-49
2024/01/11 09:50:59;;;;;;;40.37;21.63;;;;;;;;;;5074606;28;20433;-48
2024/01/11 09:53:26;;;;;;;39.60;22.37;;;;;;;;;;5074106;28;20446;-49
2024/01/11 09:55:53;;;;;;;45.10;24.07;;;;;;;;;;5074491;28;20448;-49
2024/01/11 09:58:20;;;;;;;43.10;23.73;;;;;;;;;;5074033;28;20466;-49
2024/01/11 10:00:47;;;;;;;40.30;22.33;;;;;;;;;;5073058;28;20445;-49
2024/01/11 10:03:13;;;;;;;40.87;22.30;;;;;;;;;;5074149;28;20449;-48
2024/01/11 10:05:41;;;;;;;40.93;22.43;;;;;;;;;;5074379;28;20437;-48
2024/01/11 10:08:07;;;;;;;47.83;24.27;;;;;;;;;;5073791;28;20556;-49
2024/01/11 10:10:33;;;;;;;42.03;23.80;;;;;;;;;;5073805;28;20477;-48
2024/01/11 10:12:59;;;;;;;36.13;20.53;;;;;;;;;;5074021;28;20441;-48
2024/01/11 10:15:26;;;;;;;37.83;20.60;;;;;;;;;;5073889;28;20441;-49
2024/01/11 10:17:52;;;;;;;37.90;20.23;;;;;;;;;;5073838;28;20464;-51
2024/01/11 10:20:23;;;;;;;36.87;19.37;;;;;;;;;;5073834;28;20442;-50
2024/01/11 10:22:52;;;;;;;37.03;20.73;;;;;;;;;;5073992;28;20200;-49
2024/01/11 10:25:18;;;;;;;37.97;21.43;;;;;;;;;;5073810;28;20453;-49
2024/01/11 10:27:45;;;;;;;39.47;21.40;;;;;;;;;;5074012;28;20433;-49
2024/01/11 10:30:19;;;;;;;38.27;20.03;;;;;;;;;;5073859;28;20488;-49
2024/01/11 10:32:45;;;;;;;51.57;23.93;;;;;;;;;;5073901;28;20434;-49
2024/01/11 10:35:11;;;;;;;44.53;23.17;;;;;;;;;;5073708;28;20421;-50
2024/01/11 10:37:38;;;;;;;42.27;23.03;;;;;;;;;;5073716;28;21236;-49
2024/01/11 10:40:10;;;;;;;46.67;24.33;;;;;;;;;;5073628;28;20211;-49
2024/01/11 10:42:39;;;;;;;41.30;23.23;;;;;;;;;;5073627;28;20789;-50
2024/01/11 10:45:10;;;;;;;44.33;22.33;;;;;;;;;;5073245;28;20434;-49
2024/01/11 10:47:38;;;;;;;41.97;21.43;;;;;;;;;;5073339;28;20437;-49
2024/01/11 10:50:04;;;;;;;40.43;20.27;;;;;;;;;;5073243;28;20445;-49
2024/01/11 10:52:36;;;;;;;46.93;23.43;;;;;;;;;;5073417;28;21016;-55
2024/01/11 10:55:02;;;;;;;44.53;23.13;;;;;;;;;;5073342;28;20438;-51
2024/01/11 10:57:32;;;;;;;41.47;20.13;;;;;;;;;;5073040;28;20445;-52
2024/01/11 10:59:59;;;;;;;42.60;20.50;;;;;;;;;;5073396;28;20485;-50
2024/01/11 11:02:29;;;;;;;39.73;20.87;;;;;;;;;;5073286;28;20441;-50
2024/01/11 11:04:56;;;;;;;41.70;21.20;;;;;;;;;;5073153;28;20555;-49
2024/01/11 11:07:23;;;;;;;39.17;20.10;;;;;;;;;;5072905;28;20998;-50
2024/01/11 11:09:50;;;;;;;44.37;20.83;;;;;;;;;;5072911;28;20441;-50
2024/01/11 11:12:17;;;;;;;38.70;20.10;;;;;;;;;;5072535;28;20477;-50
2024/01/11 11:14:47;;;;;;;34.77;19.83;;;;;;;;;;5073167;28;20525;-50
2024/01/11 11:17:15;;;;;;;45.40;21.70;;;;;;;;;;5072909;28;20549;-50
2024/01/11 11:19:41;;;;;;;44.50;22.70;;;;;;;;;;5072840;28;20572;-50
2024/01/11 11:22:07;;;;;;;38.93;21.50;;;;;;;;;;5072930;28;20517;-48
2024/01/11 11:24:35;;;;;;;41.27;20.67;;;;;;;;;;5072196;28;20529;-48
2024/01/11 11:27:01;;;;;;;39.87;20.30;;;;;;;;;;5072856;28;20204;-48
2024/01/11 11:29:27;;;;;;;41.00;21.37;;;;;;;;;;5072589;28;20834;-48
2024/01/11 11:31:54;;;;;;;43.93;21.47;;;;;;;;;;5072538;28;20465;-48
2024/01/11 11:34:20;;;;;;;42.40;21.27;;;;;;;;;;5072453;28;20203;-48
2024/01/11 11:36:49;;;;;;;40.23;20.10;;;;;;;;;;5072670;28;20437;-48
2024/01/11 11:39:15;;;;;;;39.77;20.40;;;;;;;;;;5072346;28;20488;-49
2024/01/11 11:41:42;;;;;;;40.27;20.10;;;;;;;;;;5072464;28;20517;-49
2024/01/11 11:44:12;;;;;;;38.43;20.00;;;;;;;;;;5072313;28;20433;-49
2024/01/11 11:46:38;;;;;;;37.97;20.80;;;;;;;;;;5072322;28;20445;-48
2024/01/11 11:49:06;;;;;;;37.10;20.40;;;;;;;;;;5072253;28;20444;-49
2024/01/11 11:51:33;;;;;;;39.03;21.53;;;;;;;;;;5072315;28;20436;-49
2024/01/11 11:53:59;;;;;;;34.03;19.30;;;;;;;;;;5072262;28;20532;-48
2024/01/11 11:56:25;;;;;;;36.27;20.87;;;;;;;;;;5072095;28;20460;-48
2024/01/11 11:58:52;;;;;;;37.40;19.83;;;;;;;;;;5072047;28;20848;-49
2024/01/11 12:01:19;;;;;;;43.17;19.90;;;;;;;;;;5072002;28;20457;-49
2024/01/11 12:03:48;;;;;;;42.07;20.70;;;;;;;;;;5072211;28;20472;-49
2024/01/11 12:06:16;;;;;;;38.87;19.93;;;;;;;;;;5072051;28;20441;-49
2024/01/11 12:08:42;;;;;;;38.23;20.87;;;;;;;;;;5072117;28;20430;-49
2024/01/11 12:11:09;;;;;;;49.37;25.17;;;;;;;;;;5071815;28;20492;-49
2024/01/11 12:13:35;;;;;;;44.10;22.20;;;;;;;;;;5071844;28;20816;-50
2024/01/11 12:16:02;;;;;;;47.23;24.73;;;;;;;;;;5071973;28;20939;-49
2024/01/11 12:18:28;;;;;;;43.73;22.47;;;;;;;;;;5071801;28;20488;-49
2024/01/11 12:20:54;;;;;;;45.20;21.70;;;;;;;;;;5071758;28;20533;-49
2024/01/11 12:23:21;;;;;;;47.47;23.30;;;;;;;;;;5070797;28;20520;-49
2024/01/11 12:25:47;;;;;;;39.93;22.43;;;;;;;;;;5071868;28;20438;-49
2024/01/11 12:28:13;;;;;;;49.30;26.20;;;;;;;;;;5071763;28;20507;-49
2024/01/11 12:30:39;;;;;;;44.93;24.07;;;;;;;;;;5071367;28;20499;-49
2024/01/11 12:33:06;;;;;;;42.60;22.83;;;;;;;;;;5070952;28;20438;-49
2024/01/11 12:35:32;;;;;;;42.40;23.83;;;;;;;;;;5071472;28;20199;-49
2024/01/11 12:37:59;;;;;;;45.00;25.53;;;;;;;;;;5071403;28;20446;-49
2024/01/11 12:40:30;;;;;;;39.07;22.83;;;;;;;;;;5071291;28;20487;-49
2024/01/11 12:42:58;;;;;;;43.07;21.70;;;;;;;;;;5071801;28;20521;-49
2024/01/11 12:45:26;;;;;;;39.97;21.30;;;;;;;;;;5071390;28;20441;-48
2024/01/11 12:47:52;;;;;;;40.70;21.53;;;;;;;;;;5071748;28;20532;-49
2024/01/11 12:50:20;;;;;;;41.33;20.93;;;;;;;;;;5071582;28;20520;-48
2024/01/11 12:52:46;;;;;;;37.47;21.97;;;;;;;;;;5071764;28;20454;-49
2024/01/11 12:55:18;;;;;;;36.67;20.57;;;;;;;;;;5071680;28;20434;-49
2024/01/11 12:57:45;;;;;;;41.03;22.10;;;;;;;;;;5071807;28;20195;-49
2024/01/11 13:00:13;;;;;;;44.30;21.27;;;;;;;;;;5071459;28;20485;-48
2024/01/11 13:02:39;;;;;;;38.23;21.50;;;;;;;;;;5071355;28;20445;-49
2024/01/11 13:05:07;;;;;;;42.27;23.33;;;;;;;;;;5071412;28;20438;-49
2024/01/11 13:07:33;;;;;;;35.37;20.40;;;;;;;;;;5071387;28;20476;-49
2024/01/11 13:09:59;;;;;;;41.13;21.63;;;;;;;;;;5071587;28;20434;-49
2024/01/11 13:12:25;;;;;;;38.57;21.33;;;;;;;;;;5071257;28;20473;-49
2024/01/11 13:14:53;;;;;;;39.37;21.90;;;;;;;;;;5071281;28;20572;-50
2024/01/11 13:17:20;;;;;;;42.93;22.07;;;;;;;;;;5071340;28;20519;-49
2024/01/11 13:19:46;;;;;;;41.40;21.67;;;;;;;;;;5071427;28;20481;-49
2024/01/11 13:22:12;;;;;;;44.43;22.70;;;;;;;;;;5071499;28;20438;-49
2024/01/11 13:24:38;;;;;;;43.97;22.03;;;;;;;;;;5071222;28;20196;-50
2024/01/11 13:27:04;;;;;;;43.20;22.67;;;;;;;;;;5071338;28;20442;-50
2024/01/11 13:29:30;;;;;;;47.67;21.50;;;;;;;;;;5071451;28;20191;-49
2024/01/11 13:31:58;;;;;;;39.43;21.20;;;;;;;;;;5071350;28;20513;-50
2024/01/11 13:34:24;;;;;;;42.67;22.27;;;;;;;;;;5072763;28;20831;-53
2024/01/11 13:36:50;;;;;;;37.77;21.53;;;;;;;;;;5075044;28;20433;-48
2024/01/11 13:39:18;;;;;;;38.00;21.73;;;;;;;;;;5074893;28;20477;-49
2024/01/11 13:41:44;;;;;;;44.00;23.00;;;;;;;;;;5074957;28;20225;-49
2024/01/11 13:44:11;;;;;;;40.17;21.37;;;;;;;;;;5074807;28;20453;-49
2024/01/11 13:46:37;;;;;;;42.80;22.50;;;;;;;;;;5074416;28;20919;-49
2024/01/11 13:49:04;;;;;;;40.33;21.63;;;;;;;;;;5074618;28;20482;-48
2024/01/11 13:51:32;;;;;;;41.17;21.23;;;;;;;;;;5074642;28;20200;-49
2024/01/11 13:53:59;;;;;;;50.57;24.00;;;;;;;;;;5074719;28;20438;-49
2024/01/11 13:56:25;;;;;;;43.37;22.63;;;;;;;;;;5074495;28;21007;-49
2024/01/11 13:58:51;;;;;;;42.30;21.33;;;;;;;;;;5074582;28;20469;-49
2024/01/11 14:01:17;;;;;;;42.97;23.03;;;;;;;;;;5074660;28;20473;-50
2024/01/11 14:03:43;;;;;;;41.47;21.80;;;;;;;;;;5074472;28;20308;-50
2024/01/11 14:06:10;;;;;;;43.80;23.40;;;;;;;;;;5074426;28;20704;-49
2024/01/11 14:08:36;;;;;;;40.83;22.47;;;;;;;;;;5074247;28;20199;-50
2024/01/11 14:11:02;;;;;;;45.40;21.53;;;;;;;;;;5074325;28;20496;-50
2024/01/11 14:13:28;;;;;;;52.97;27.80;;;;;;;;;;5072336;28;20210;-49
2024/01/11 14:15:54;;;;;;;46.23;24.37;;;;;;;;;;5073667;28;20442;-50
2024/01/11 14:18:20;;;;;;;42.50;24.93;;;;;;;;;;5073386;28;20227;-49